Murphy, Oregon
Current Conditions -  °F | °C
As of 11:56 PM on Sunday 21 Dec 2014 (Local Time) from KSXT Reporting Station
Moderate Fog Moderate Fog  
Wind Chill: 40°   Ceiling: 200
Heat Index: 47°   Visibility: 0.25mi
Dew Point: 47°   Wind: 17mph
Humidity: 100%   Direction: 210°SSW
Pressure: 30.26"   Gusts: 24mph
Location:  42.35°N, 123.34°W
Report Text: KSXT 220756Z AUTO 21015G21KT 1/4SM FG VV002 08/08 A3026 RMK AO2 SLP237 T00830083 400940078
Loading
Personal Weather Stations






























Interactive Weather Map New forecast layout! Learn more

10-Day Weather Forecast

Advertisements
Track Severe Weather on mobile